QFA882 YMML-YSSY
Flight info
| Callsign | QFA882 |
|---|---|
| Flight time | 1h 0m |
| Altitude | 31000 |
| Route | ML H129 DOSEL Y59 RIVET |
| Aircraft | B738/M-SDE2E3FGHIRWXY/LB1 |
Departure
| Time | 2026-05-07 11:04 |
|---|---|
| Airport | Melbourne Airport (YMML) |
Arrival
| Time | 2026-05-07 12:04 |
|---|---|
| Airport | Sydney Kingsford Smith International Airport (YSSY) |
| Time | Latitude | Longitude | Altitude | Speed | Heading |
|---|---|---|---|---|---|
| 2026-05-07 11:00 | -37.66481 | 144.84708 | 404 ft | 7 kts | 78° |
| 2026-05-07 11:00 | -37.66468 | 144.84750 | 405 ft | 3 kts | 58° |
| 2026-05-07 11:00 | -37.66452 | 144.84776 | 406 ft | 3 kts | 30° |
| 2026-05-07 11:01 | -37.66423 | 144.84784 | 406 ft | 4 kts | 4° |
| 2026-05-07 11:01 | -37.66388 | 144.84786 | 407 ft | 5 kts | 1° |
| 2026-05-07 11:01 | -37.66357 | 144.84787 | 408 ft | 0 kts | 2° |
| 2026-05-07 11:02 | -37.66345 | 144.84787 | 408 ft | 7 kts | 3° |
| 2026-05-07 11:03 | -37.66256 | 144.84782 | 409 ft | 14 kts | 335° |
| 2026-05-07 11:03 | -37.66217 | 144.84665 | 408 ft | 28 kts | 275° |
| 2026-05-07 11:03 | -37.66180 | 144.84039 | 415 ft | 117 kts | 277° |
| 2026-05-07 11:03 | -37.66096 | 144.82719 | 597 ft | 171 kts | 274° |
| 2026-05-07 11:04 | -37.65968 | 144.81273 | 1857 ft | 174 kts | 275° |
| 2026-05-07 11:04 | -37.65781 | 144.79835 | 2985 ft | 178 kts | 275° |
| 2026-05-07 11:04 | -37.65585 | 144.78220 | 3788 ft | 199 kts | 273° |
| 2026-05-07 11:04 | -37.65387 | 144.76398 | 4610 ft | 221 kts | 272° |
| 2026-05-07 11:05 | -37.65178 | 144.74438 | 5491 ft | 239 kts | 271° |
| 2026-05-07 11:05 | -37.64960 | 144.72310 | 6465 ft | 252 kts | 269° |
| 2026-05-07 11:05 | -37.64833 | 144.70145 | 7613 ft | 258 kts | 270° |
| 2026-05-07 11:05 | -37.64315 | 144.67953 | 8700 ft | 277 kts | 289° |
| 2026-05-07 11:06 | -37.63117 | 144.65990 | 9776 ft | 297 kts | 310° |
| 2026-05-07 11:06 | -37.61333 | 144.64558 | 10696 ft | 321 kts | 329° |
| 2026-05-07 11:06 | -37.59137 | 144.63475 | 11208 ft | 349 kts | 334° |
| 2026-05-07 11:06 | -37.56716 | 144.62802 | 12085 ft | 368 kts | 353° |
| 2026-05-07 11:07 | -37.54172 | 144.63321 | 12940 ft | 385 kts | 21° |
| 2026-05-07 11:07 | -37.51940 | 144.65198 | 13848 ft | 390 kts | 49° |
| 2026-05-07 11:07 | -37.50362 | 144.67947 | 14729 ft | 392 kts | 60° |
| 2026-05-07 11:07 | -37.48766 | 144.70770 | 15553 ft | 401 kts | 54° |
| 2026-05-07 11:08 | -37.47082 | 144.73595 | 16392 ft | 404 kts | 60° |
| 2026-05-07 11:08 | -37.45652 | 144.76601 | 17211 ft | 407 kts | 65° |
| 2026-05-07 11:08 | -37.44262 | 144.79724 | 17935 ft | 414 kts | 64° |
| 2026-05-07 11:08 | -37.42847 | 144.82848 | 18738 ft | 417 kts | 64° |
| 2026-05-07 11:09 | -37.41380 | 144.86040 | 19420 ft | 424 kts | 64° |
| 2026-05-07 11:09 | -37.39917 | 144.89227 | 20201 ft | 427 kts | 64° |
| 2026-05-07 11:09 | -37.38428 | 144.92484 | 20883 ft | 433 kts | 64° |
| 2026-05-07 11:09 | -37.36928 | 144.95756 | 21562 ft | 437 kts | 64° |
| 2026-05-07 11:10 | -37.35401 | 144.99081 | 22161 ft | 443 kts | 64° |
| 2026-05-07 11:10 | -37.33867 | 145.02420 | 22817 ft | 447 kts | 64° |
| 2026-05-07 11:10 | -37.32305 | 145.05817 | 23465 ft | 451 kts | 64° |
| 2026-05-07 11:10 | -37.30725 | 145.09247 | 24015 ft | 456 kts | 64° |
| 2026-05-07 11:11 | -37.29142 | 145.12694 | 24230 ft | 465 kts | 63° |
| 2026-05-07 11:11 | -37.27500 | 145.16264 | 24212 ft | 470 kts | 63° |
| 2026-05-07 11:11 | -37.25869 | 145.19794 | 24208 ft | 476 kts | 63° |
| 2026-05-07 11:11 | -37.24200 | 145.23384 | 24207 ft | 480 kts | 63° |
| 2026-05-07 11:12 | -37.22517 | 145.27005 | 24208 ft | 485 kts | 63° |
| 2026-05-07 11:12 | -37.20798 | 145.30701 | 24210 ft | 489 kts | 63° |
| 2026-05-07 11:12 | -37.19092 | 145.34351 | 24202 ft | 492 kts | 63° |
| 2026-05-07 11:12 | -37.17360 | 145.38057 | 24209 ft | 495 kts | 63° |
| 2026-05-07 11:13 | -37.15509 | 145.41733 | 24201 ft | 500 kts | 58° |
| 2026-05-07 11:13 | -37.13465 | 145.45282 | 24205 ft | 503 kts | 56° |
| 2026-05-07 11:13 | -37.11378 | 145.48810 | 24198 ft | 507 kts | 56° |
| 2026-05-07 11:13 | -37.09311 | 145.52336 | 24190 ft | 494 kts | 56° |
| 2026-05-07 11:14 | -37.07342 | 145.55733 | 24186 ft | 473 kts | 57° |
| 2026-05-07 11:14 | -37.05437 | 145.59021 | 24414 ft | 471 kts | 57° |
| 2026-05-07 11:14 | -37.03509 | 145.62360 | 25080 ft | 472 kts | 57° |
| 2026-05-07 11:14 | -37.01602 | 145.65686 | 25518 ft | 479 kts | 56° |
| 2026-05-07 11:15 | -36.99652 | 145.69081 | 26038 ft | 482 kts | 56° |
| 2026-05-07 11:15 | -36.97681 | 145.72493 | 26635 ft | 484 kts | 55° |
| 2026-05-07 11:15 | -36.95736 | 145.75858 | 27224 ft | 484 kts | 55° |
| 2026-05-07 11:15 | -36.93754 | 145.79280 | 27809 ft | 485 kts | 54° |
| 2026-05-07 11:16 | -36.91762 | 145.82710 | 28358 ft | 487 kts | 54° |
| 2026-05-07 11:16 | -36.89767 | 145.86133 | 28957 ft | 486 kts | 54° |
| 2026-05-07 11:16 | -36.87804 | 145.89499 | 29496 ft | 486 kts | 54° |
| 2026-05-07 11:16 | -36.85801 | 145.92943 | 30033 ft | 486 kts | 54° |
| 2026-05-07 11:17 | -36.83815 | 145.96336 | 30563 ft | 486 kts | 54° |
| 2026-05-07 11:17 | -36.81826 | 145.99728 | 31138 ft | 485 kts | 54° |
| 2026-05-07 11:17 | -36.77866 | 146.06494 | 31195 ft | 476 kts | 54° |
| 2026-05-07 11:18 | -36.74017 | 146.13084 | 31195 ft | 471 kts | 54° |
| 2026-05-07 11:18 | -36.70114 | 146.19719 | 31191 ft | 475 kts | 54° |
| 2026-05-07 11:19 | -36.66231 | 146.26335 | 31191 ft | 474 kts | 54° |
| 2026-05-07 11:19 | -36.62338 | 146.32942 | 31198 ft | 474 kts | 54° |
| 2026-05-07 11:20 | -36.58457 | 146.39557 | 31202 ft | 476 kts | 54° |
| 2026-05-07 11:20 | -36.54542 | 146.46184 | 31206 ft | 474 kts | 54° |
| 2026-05-07 11:21 | -36.50643 | 146.52765 | 31212 ft | 473 kts | 54° |
| 2026-05-07 11:21 | -36.46752 | 146.59349 | 31209 ft | 474 kts | 54° |
| 2026-05-07 11:22 | -36.42835 | 146.65948 | 31201 ft | 474 kts | 54° |
| 2026-05-07 11:22 | -36.38924 | 146.72527 | 31195 ft | 473 kts | 53° |
| 2026-05-07 11:23 | -36.35012 | 146.79094 | 31191 ft | 475 kts | 53° |
| 2026-05-07 11:23 | -36.31100 | 146.85646 | 31195 ft | 473 kts | 53° |
| 2026-05-07 11:24 | -36.27186 | 146.92184 | 31197 ft | 473 kts | 54° |
| 2026-05-07 11:24 | -36.23254 | 146.98755 | 31212 ft | 474 kts | 54° |
| 2026-05-07 11:25 | -36.19345 | 147.05261 | 31208 ft | 473 kts | 54° |
| 2026-05-07 11:25 | -36.15425 | 147.11809 | 31212 ft | 474 kts | 54° |
| 2026-05-07 11:26 | -36.11486 | 147.18343 | 31203 ft | 473 kts | 53° |
| 2026-05-07 11:26 | -36.07547 | 147.24861 | 31210 ft | 473 kts | 54° |
| 2026-05-07 11:27 | -36.03620 | 147.31352 | 31207 ft | 473 kts | 54° |
| 2026-05-07 11:27 | -35.99673 | 147.37872 | 31208 ft | 473 kts | 53° |
| 2026-05-07 11:28 | -35.95742 | 147.44327 | 31209 ft | 472 kts | 54° |
| 2026-05-07 11:28 | -35.91792 | 147.50830 | 31211 ft | 473 kts | 54° |
| 2026-05-07 11:29 | -35.87864 | 147.57269 | 31209 ft | 471 kts | 54° |
| 2026-05-07 11:29 | -35.83905 | 147.63753 | 31206 ft | 471 kts | 54° |
| 2026-05-07 11:30 | -35.79968 | 147.70201 | 31205 ft | 473 kts | 54° |
| 2026-05-07 11:30 | -35.75999 | 147.76672 | 31199 ft | 472 kts | 53° |
| 2026-05-07 11:31 | -35.72059 | 147.83102 | 31202 ft | 477 kts | 53° |
| 2026-05-07 11:31 | -35.68002 | 147.89697 | 31212 ft | 488 kts | 53° |
| 2026-05-07 11:32 | -35.61808 | 147.99750 | 31193 ft | 503 kts | 53° |
| 2026-05-07 11:32 | -35.59661 | 148.03207 | 31070 ft | 511 kts | 53° |
| 2026-05-07 11:33 | -35.57511 | 148.06679 | 31018 ft | 516 kts | 54° |
| 2026-05-07 11:33 | -35.53155 | 148.13730 | 31280 ft | 517 kts | 53° |
| 2026-05-07 11:34 | -35.48888 | 148.20593 | 31171 ft | 501 kts | 53° |
| 2026-05-07 11:34 | -35.44630 | 148.27444 | 31197 ft | 508 kts | 54° |
| 2026-05-07 11:35 | -35.40311 | 148.34389 | 31189 ft | 517 kts | 53° |
| 2026-05-07 11:35 | -35.35963 | 148.41342 | 31173 ft | 518 kts | 53° |
| 2026-05-07 11:36 | -35.31567 | 148.48372 | 31157 ft | 519 kts | 53° |
| 2026-05-07 11:36 | -35.27166 | 148.55379 | 31144 ft | 521 kts | 53° |
| 2026-05-07 11:37 | -35.22748 | 148.62434 | 31140 ft | 528 kts | 53° |
| 2026-05-07 11:37 | -35.18269 | 148.69547 | 31144 ft | 533 kts | 53° |
| 2026-05-07 11:38 | -35.13723 | 148.76758 | 31140 ft | 532 kts | 53° |
| 2026-05-07 11:38 | -35.09226 | 148.83882 | 31144 ft | 530 kts | 53° |
| 2026-05-07 11:39 | -35.04703 | 148.91016 | 31141 ft | 533 kts | 53° |
| 2026-05-07 11:39 | -35.00185 | 148.98138 | 31138 ft | 534 kts | 53° |
| 2026-05-07 11:40 | -34.95642 | 149.05258 | 31135 ft | 533 kts | 53° |
| 2026-05-07 11:40 | -34.91079 | 149.12425 | 31066 ft | 534 kts | 53° |
| 2026-05-07 11:40 | -34.88797 | 149.15988 | 30854 ft | 534 kts | 53° |
| 2026-05-07 11:41 | -34.86549 | 149.19516 | 30626 ft | 532 kts | 53° |
| 2026-05-07 11:41 | -34.84280 | 149.23086 | 30336 ft | 532 kts | 54° |
| 2026-05-07 11:41 | -34.82014 | 149.26636 | 29985 ft | 534 kts | 53° |
| 2026-05-07 11:41 | -34.79728 | 149.30209 | 29587 ft | 536 kts | 53° |
| 2026-05-07 11:42 | -34.77436 | 149.33795 | 29024 ft | 538 kts | 53° |
| 2026-05-07 11:42 | -34.75214 | 149.37393 | 28468 ft | 535 kts | 57° |
| 2026-05-07 11:42 | -34.73266 | 149.41206 | 27921 ft | 533 kts | 63° |
| 2026-05-07 11:42 | -34.71478 | 149.45190 | 27368 ft | 534 kts | 65° |
| 2026-05-07 11:43 | -34.69742 | 149.49156 | 26819 ft | 535 kts | 65° |
| 2026-05-07 11:43 | -34.67998 | 149.53128 | 26272 ft | 536 kts | 65° |
| 2026-05-07 11:43 | -34.66239 | 149.57124 | 25722 ft | 536 kts | 65° |
| 2026-05-07 11:43 | -34.64499 | 149.61089 | 25181 ft | 536 kts | 65° |
| 2026-05-07 11:44 | -34.62740 | 149.65083 | 24629 ft | 533 kts | 64° |
| 2026-05-07 11:44 | -34.60999 | 149.69037 | 24104 ft | 528 kts | 64° |
| 2026-05-07 11:44 | -34.59289 | 149.72911 | 23593 ft | 524 kts | 64° |
| 2026-05-07 11:44 | -34.57590 | 149.76784 | 23077 ft | 522 kts | 65° |
| 2026-05-07 11:45 | -34.55884 | 149.80669 | 22563 ft | 519 kts | 65° |
| 2026-05-07 11:45 | -34.54193 | 149.84505 | 22045 ft | 513 kts | 64° |
| 2026-05-07 11:45 | -34.52515 | 149.88300 | 21531 ft | 508 kts | 65° |
| 2026-05-07 11:45 | -34.50872 | 149.92015 | 21019 ft | 505 kts | 65° |
| 2026-05-07 11:46 | -34.49219 | 149.95761 | 20501 ft | 500 kts | 65° |
| 2026-05-07 11:46 | -34.47612 | 149.99405 | 19970 ft | 477 kts | 65° |
| 2026-05-07 11:46 | -34.46094 | 150.02832 | 19469 ft | 455 kts | 66° |
| 2026-05-07 11:46 | -34.44623 | 150.06165 | 18966 ft | 445 kts | 66° |
| 2026-05-07 11:47 | -34.43186 | 150.09416 | 18449 ft | 436 kts | 66° |
| 2026-05-07 11:47 | -34.41770 | 150.12605 | 17933 ft | 427 kts | 66° |
| 2026-05-07 11:47 | -34.40376 | 150.15723 | 17427 ft | 419 kts | 67° |
| 2026-05-07 11:47 | -34.39001 | 150.18793 | 16901 ft | 412 kts | 67° |
| 2026-05-07 11:48 | -34.37658 | 150.21831 | 16390 ft | 406 kts | 67° |
| 2026-05-07 11:48 | -34.36330 | 150.24828 | 15871 ft | 400 kts | 68° |
| 2026-05-07 11:48 | -34.35014 | 150.27760 | 15350 ft | 395 kts | 68° |
| 2026-05-07 11:48 | -34.33727 | 150.30662 | 14832 ft | 390 kts | 69° |
| 2026-05-07 11:49 | -34.32465 | 150.33498 | 14306 ft | 383 kts | 69° |
| 2026-05-07 11:49 | -34.31223 | 150.36255 | 13919 ft | 362 kts | 69° |
| 2026-05-07 11:49 | -34.30044 | 150.38878 | 13580 ft | 348 kts | 70° |
| 2026-05-07 11:49 | -34.28899 | 150.41484 | 13242 ft | 354 kts | 70° |
| 2026-05-07 11:50 | -34.27760 | 150.44075 | 12906 ft | 351 kts | 69° |
| 2026-05-07 11:50 | -34.26608 | 150.46655 | 12565 ft | 346 kts | 69° |
| 2026-05-07 11:50 | -34.25455 | 150.49210 | 12223 ft | 343 kts | 68° |
| 2026-05-07 11:50 | -34.24335 | 150.51700 | 11887 ft | 338 kts | 68° |
| 2026-05-07 11:51 | -34.23223 | 150.54169 | 11544 ft | 333 kts | 68° |
| 2026-05-07 11:51 | -34.22111 | 150.56636 | 11199 ft | 333 kts | 68° |
| 2026-05-07 11:51 | -34.21008 | 150.59087 | 10850 ft | 329 kts | 68° |
| 2026-05-07 11:51 | -34.19926 | 150.61482 | 10508 ft | 326 kts | 67° |
| 2026-05-07 11:52 | -34.18849 | 150.63872 | 10161 ft | 321 kts | 66° |
| 2026-05-07 11:52 | -34.17784 | 150.66228 | 9813 ft | 318 kts | 66° |
| 2026-05-07 11:52 | -34.16733 | 150.68533 | 9466 ft | 314 kts | 65° |
| 2026-05-07 11:52 | -34.15683 | 150.70848 | 9167 ft | 311 kts | 65° |
| 2026-05-07 11:53 | -34.14644 | 150.73141 | 8966 ft | 313 kts | 65° |
| 2026-05-07 11:53 | -34.13600 | 150.75435 | 8772 ft | 312 kts | 65° |
| 2026-05-07 11:53 | -34.12552 | 150.77750 | 8572 ft | 311 kts | 66° |
| 2026-05-07 11:53 | -34.11529 | 150.80008 | 8376 ft | 308 kts | 65° |
| 2026-05-07 11:54 | -34.10499 | 150.82289 | 8174 ft | 307 kts | 65° |
| 2026-05-07 11:54 | -34.09483 | 150.84544 | 7977 ft | 306 kts | 65° |
| 2026-05-07 11:54 | -34.08468 | 150.86801 | 7770 ft | 306 kts | 65° |
| 2026-05-07 11:54 | -34.07460 | 150.89038 | 7567 ft | 304 kts | 65° |
| 2026-05-07 11:55 | -34.06454 | 150.91266 | 7370 ft | 304 kts | 65° |
| 2026-05-07 11:55 | -34.05446 | 150.93495 | 7161 ft | 302 kts | 65° |
| 2026-05-07 11:55 | -34.04438 | 150.95726 | 6953 ft | 302 kts | 65° |
| 2026-05-07 11:55 | -34.03440 | 150.97937 | 6725 ft | 301 kts | 65° |
| 2026-05-07 11:56 | -34.02446 | 151.00140 | 6457 ft | 298 kts | 65° |
| 2026-05-07 11:56 | -34.01473 | 151.02336 | 6198 ft | 296 kts | 68° |
| 2026-05-07 11:56 | -34.00809 | 151.04642 | 5937 ft | 285 kts | 86° |
| 2026-05-07 11:56 | -34.00841 | 151.06886 | 5687 ft | 253 kts | 110° |
| 2026-05-07 11:57 | -34.01511 | 151.08688 | 5419 ft | 224 kts | 136° |
| 2026-05-07 11:57 | -34.02630 | 151.09802 | 5157 ft | 198 kts | 163° |
| 2026-05-07 11:57 | -34.03914 | 151.10251 | 4912 ft | 191 kts | 174° |
| 2026-05-07 11:57 | -34.05201 | 151.10629 | 4692 ft | 188 kts | 173° |
| 2026-05-07 11:58 | -34.06425 | 151.11011 | 4425 ft | 176 kts | 173° |
| 2026-05-07 11:58 | -34.07568 | 151.11429 | 4157 ft | 171 kts | 165° |
| 2026-05-07 11:58 | -34.08529 | 151.12297 | 3886 ft | 174 kts | 146° |
| 2026-05-07 11:58 | -34.09397 | 151.13312 | 3606 ft | 171 kts | 147° |
| 2026-05-07 11:59 | -34.10127 | 151.14441 | 3342 ft | 178 kts | 125° |
| 2026-05-07 11:59 | -34.10334 | 151.15968 | 3071 ft | 196 kts | 92° |
| 2026-05-07 11:59 | -34.10045 | 151.17581 | 2993 ft | 195 kts | 83° |
| 2026-05-07 11:59 | -34.09585 | 151.19081 | 2961 ft | 185 kts | 60° |
| 2026-05-07 12:00 | -34.08729 | 151.20088 | 2863 ft | 162 kts | 33° |
| 2026-05-07 12:00 | -34.07726 | 151.20763 | 2388 ft | 167 kts | 13° |
| 2026-05-07 12:00 | -34.06614 | 151.20857 | 1977 ft | 152 kts | 340° |
| 2026-05-07 12:00 | -34.05609 | 151.20673 | 1759 ft | 146 kts | 340° |
| 2026-05-07 12:01 | -34.04627 | 151.20433 | 1654 ft | 140 kts | 334° |
| 2026-05-07 12:01 | -34.03669 | 151.20158 | 1512 ft | 141 kts | 337° |
| 2026-05-07 12:01 | -34.02733 | 151.19882 | 1400 ft | 138 kts | 338° |
| 2026-05-07 12:01 | -34.01786 | 151.19621 | 1233 ft | 139 kts | 334° |
| 2026-05-07 12:02 | -34.00854 | 151.19321 | 1082 ft | 137 kts | 334° |
| 2026-05-07 12:02 | -33.99925 | 151.19035 | 880 ft | 136 kts | 338° |
| 2026-05-07 12:02 | -33.99004 | 151.18780 | 608 ft | 135 kts | 338° |
| 2026-05-07 12:02 | -33.98087 | 151.18527 | 337 ft | 134 kts | 341° |
| 2026-05-07 12:03 | -33.97189 | 151.18285 | 226 ft | 130 kts | 339° |
| 2026-05-07 12:03 | -33.96304 | 151.18039 | 48 ft | 130 kts | 341° |
| 2026-05-07 12:03 | -33.95482 | 151.17830 | 17 ft | 108 kts | 340° |
| 2026-05-07 12:03 | -33.94920 | 151.17668 | 21 ft | 60 kts | 352° |
| 2026-05-07 12:04 | -33.94612 | 151.17654 | 26 ft | 35 kts | 13° |
| 2026-05-07 12:04 | -33.94465 | 151.17706 | 25 ft | 12 kts | 19° |
| 2026-05-07 12:04 | -33.94404 | 151.17729 | 22 ft | 10 kts | 18° |
| 2026-05-07 12:04 | -33.94311 | 151.17731 | 20 ft | 15 kts | 345° |
| 2026-05-07 12:05 | -33.94212 | 151.17702 | 18 ft | 14 kts | 346° |
| 2026-05-07 12:05 | -33.94117 | 151.17671 | 14 ft | 15 kts | 343° |
| 2026-05-07 12:05 | -33.93988 | 151.17635 | 10 ft | 20 kts | 349° |
| 2026-05-07 12:05 | -33.93852 | 151.17601 | 9 ft | 20 kts | 347° |
| 2026-05-07 12:06 | -33.93715 | 151.17564 | 9 ft | 19 kts | 347° |
| 2026-05-07 12:06 | -33.93579 | 151.17528 | 9 ft | 19 kts | 348° |
| 2026-05-07 12:06 | -33.93456 | 151.17503 | 11 ft | 16 kts | 4° |
| 2026-05-07 12:06 | -33.93345 | 151.17494 | 16 ft | 16 kts | 346° |
| 2026-05-07 12:07 | -33.93235 | 151.17467 | 19 ft | 16 kts | 348° |
| 2026-05-07 12:07 | -33.93126 | 151.17439 | 21 ft | 14 kts | 353° |
| 2026-05-07 12:07 | -33.93067 | 151.17505 | 21 ft | 12 kts | 64° |
| 2026-05-07 12:07 | -33.93011 | 151.17578 | 22 ft | 10 kts | 73° |
| 2026-05-07 12:08 | -33.93022 | 151.17673 | 22 ft | 11 kts | 112° |
| 2026-05-07 12:08 | -33.93058 | 151.17773 | 23 ft | 14 kts | 105° |
| 2026-05-07 12:08 | -33.93076 | 151.17892 | 24 ft | 12 kts | 100° |
| 2026-05-07 12:08 | -33.93090 | 151.17967 | 25 ft | 5 kts | 123° |
| 2026-05-07 12:09 | -33.93115 | 151.17979 | 25 ft | 2 kts | 182° |
| 2026-05-07 12:09 | -33.93131 | 151.17976 | 25 ft | 4 kts | 190° |
| 2026-05-07 12:09 | -33.93153 | 151.17972 | 25 ft | 1 kts | 191° |
| 2026-05-07 12:09 | -33.93167 | 151.17969 | 25 ft | 2 kts | 189° |
| 2026-05-07 12:10 | -33.93171 | 151.17967 | 25 ft | 0 kts | 189° |